Time;durP1;ratioP1;P1;durP2;ratioP2;P2;SDS_P1;SDS_P2;PMS_P1;PMS_P2;Temp;Humidity;BMP_temperature;BMP_pressure;BME280_temperature;BME280_humidity;BME280_pressure;Samples;Min_cycle;Max_cycle;Signal;HPM_P1;HPM_P2
2023/02/01 00:00:33;;;;;;;5.67;2.60;;;3.50;99.90;;;;;;6246752;22;20485;-77
2023/02/01 00:03:01;;;;;;;3.90;3.30;;;3.90;99.90;;;;;;6245754;23;20807;-77
2023/02/01 00:05:28;;;;;;;4.23;3.27;;;3.40;99.90;;;;;;6244476;23;20457;-77
2023/02/01 00:07:55;;;;;;;5.13;3.13;;;3.50;99.90;;;;;;6244875;23;20501;-77
2023/02/01 00:10:22;;;;;;;4.60;3.40;;;3.90;99.90;;;;;;6243795;23;20747;-78
2023/02/01 00:12:49;;;;;;;4.40;2.63;;;3.50;99.90;;;;;;6242860;23;20424;-77
2023/02/01 00:15:16;;;;;;;4.23;2.73;;;3.70;99.90;;;;;;6243537;23;20432;-77
2023/02/01 00:17:43;;;;;;;3.43;3.13;;;3.50;99.90;;;;;;6247404;23;20394;-77
2023/02/01 00:20:12;;;;;;;4.20;2.40;;;3.60;99.90;;;;;;6246697;23;20442;-79
2023/02/01 00:22:39;;;;;;;4.17;2.50;;;3.70;99.90;;;;;;6248103;23;20446;-79
2023/02/01 00:25:07;;;;;;;5.13;3.23;;;3.70;99.90;;;;;;6247945;23;20417;-78
2023/02/01 00:27:33;;;;;;;3.63;3.30;;;3.70;99.90;;;;;;6250884;23;20441;-78
2023/02/01 00:30:00;;;;;;;4.80;3.63;;;3.70;99.90;;;;;;6241059;23;20398;-77
2023/02/01 00:32:27;;;;;;;6.67;3.53;;;3.70;99.90;;;;;;6240893;23;20414;-77
2023/02/01 00:34:54;;;;;;;4.50;2.70;;;3.70;99.90;;;;;;6240390;23;20485;-77
2023/02/01 00:37:23;;;;;;;4.47;3.50;;;3.60;99.90;;;;;;6240160;23;20415;-79
2023/02/01 00:39:50;;;;;;;5.33;2.77;;;3.60;99.90;;;;;;6240028;23;20437;-79
2023/02/01 00:42:16;;;;;;;4.67;3.87;;;3.60;99.90;;;;;;6240004;23;20482;-77
2023/02/01 00:44:43;;;;;;;4.80;3.17;;;3.40;99.90;;;;;;6239853;23;20906;-77
2023/02/01 00:47:10;;;;;;;3.40;2.63;;;3.40;99.90;;;;;;6240631;23;20390;-77
2023/02/01 00:49:37;;;;;;;2.80;2.60;;;3.20;99.90;;;;;;6240469;23;20418;-77
2023/02/01 00:52:04;;;;;;;3.67;3.37;;;3.30;99.90;;;;;;6239356;23;20846;-79
2023/02/01 00:54:34;;;;;;;3.53;3.13;;;3.20;99.90;;;;;;6240569;23;20409;-77
2023/02/01 00:57:01;;;;;;;5.10;3.50;;;3.00;99.90;;;;;;6245947;23;20406;-77
2023/02/01 00:59:28;;;;;;;4.50;3.50;;;3.10;99.90;;;;;;6245463;23;20413;-77
2023/02/01 01:01:55;;;;;;;4.53;4.13;;;2.80;99.90;;;;;;6248942;23;20409;-77
2023/02/01 01:04:22;;;;;;;6.40;4.90;;;2.90;99.90;;;;;;6244243;23;20420;-78
2023/02/01 01:06:48;;;;;;;5.70;4.30;;;2.80;99.90;;;;;;6243579;23;20413;-78
2023/02/01 01:09:15;;;;;;;3.57;3.20;;;2.80;99.90;;;;;;6243475;23;20972;-77
2023/02/01 01:11:44;;;;;;;5.53;4.03;;;2.80;99.90;;;;;;6249348;23;20396;-80
2023/02/01 01:14:12;;;;;;;4.40;4.00;;;2.80;99.90;;;;;;6249749;23;20911;-78
2023/02/01 01:16:39;;;;;;;4.50;4.07;;;2.70;99.90;;;;;;6248839;23;20422;-80
2023/02/01 01:19:06;;;;;;;5.00;3.07;;;2.80;99.90;;;;;;6251835;23;20464;-81
2023/02/01 01:21:33;;;;;;;6.80;4.53;;;2.80;99.90;;;;;;6250249;22;20449;-77
2023/02/01 01:24:00;;;;;;;4.97;4.47;;;2.80;99.90;;;;;;6245903;23;20468;-82
2023/02/01 01:26:29;;;;;;;5.20;3.90;;;2.80;99.90;;;;;;6247013;23;20401;-81
2023/02/01 01:28:58;;;;;;;5.83;3.90;;;2.90;99.90;;;;;;6248266;23;20826;-78
2023/02/01 01:31:26;;;;;;;4.40;3.70;;;2.80;99.90;;;;;;6246976;23;20441;-78
2023/02/01 01:33:55;;;;;;;4.63;3.97;;;2.90;99.90;;;;;;6243514;23;20749;-78
2023/02/01 01:36:22;;;;;;;5.90;4.23;;;2.90;99.90;;;;;;6239946;23;20419;-77
2023/02/01 01:38:50;;;;;;;6.20;4.53;;;3.00;99.90;;;;;;6239572;23;20410;-78
2023/02/01 01:41:19;;;;;;;5.07;3.83;;;2.90;99.90;;;;;;6239538;23;20398;-78
2023/02/01 01:44:06;;;;;;;5.50;4.23;;;2.90;99.90;;;;;;6240440;23;20954;-78
2023/02/01 01:46:35;;;;;;;8.60;4.97;;;2.90;99.90;;;;;;6240547;22;20410;-77
2023/02/01 01:49:07;;;;;;;7.10;4.43;;;2.80;99.90;;;;;;6239413;23;20506;-77
2023/02/01 01:51:38;;;;;;;6.10;5.20;;;2.80;99.90;;;;;;6239364;23;20394;-77
2023/02/01 01:54:08;;;;;;;7.07;6.30;;;2.80;99.90;;;;;;6239336;23;20393;-77
2023/02/01 01:56:36;;;;;;;8.33;4.90;;;2.70;99.90;;;;;;6239524;23;20411;-77
2023/02/01 01:59:05;;;;;;;8.97;5.60;;;2.80;99.90;;;;;;6239654;23;20403;-77
2023/02/01 02:01:33;;;;;;;8.73;5.97;;;2.60;99.90;;;;;;6239139;23;20398;-77
2023/02/01 02:04:01;;;;;;;10.33;7.00;;;2.60;99.90;;;;;;6239682;23;20442;-78
2023/02/01 02:06:37;;;;;;;9.07;5.83;;;2.50;99.90;;;;;;6239146;23;20962;-77
2023/02/01 02:09:04;;;;;;;8.80;5.83;;;2.60;99.90;;;;;;6239170;23;20390;-77
2023/02/01 02:11:31;;;;;;;11.00;5.57;;;2.50;99.90;;;;;;6239563;23;20891;-77
2023/02/01 02:13:59;;;;;;;9.40;6.80;;;2.30;99.90;;;;;;6239070;22;20489;-77
2023/02/01 02:16:53;;;;;;;7.37;5.60;;;2.40;99.90;;;;;;6238804;23;20414;-77
2023/02/01 02:19:55;;;;;;;7.50;5.60;;;2.50;99.90;;;;;;6238492;23;20420;-78
2023/02/01 02:22:46;;;;;;;8.47;6.33;;;2.50;99.90;;;;;;6152860;22;20408;-77
2023/02/01 02:25:39;;;;;;;11.57;6.70;;;2.50;99.90;;;;;;6195035;22;20416;-77
2023/02/01 02:28:17;;;;;;;8.17;5.33;;;2.50;99.90;;;;;;6239400;23;20401;-79
2023/02/01 02:31:14;;;;;;;13.30;7.10;;;2.50;99.90;;;;;;6240439;23;20467;-78
2023/02/01 02:33:57;;;;;;;8.73;7.13;;;2.50;99.90;;;;;;6238991;23;20772;-78
2023/02/01 02:36:38;;;;;;;4.47;3.90;;;2.60;99.90;;;;;;6239033;23;20382;-77
2023/02/01 02:39:09;;;;;;;8.50;5.63;;;2.60;99.90;;;;;;6238489;23;20545;-78
2023/02/01 02:47:25;;;;;;;7.10;6.10;;;2.70;99.90;;;;;;6239116;23;20390;-79
2023/02/01 02:55:44;;;;;;;10.40;6.60;;;2.70;99.90;;;;;;6239110;23;20438;-77
2023/02/01 03:06:29;;;;;;;5.67;4.20;;;2.80;99.90;;;;;;6239494;23;20386;-77
2023/02/01 03:09:00;;;;;;;7.50;5.60;;;2.80;99.90;;;;;;6239119;23;21028;-77
2023/02/01 03:12:55;;;;;;;6.30;4.30;;;2.80;99.90;;;;;;6238889;23;21216;-78
2023/02/01 03:14:15;;;;;;;6.37;5.00;;;2.90;99.90;;;;;;6238698;22;21020;-77
2023/02/01 03:16:48;;;;;;;7.30;4.87;;;3.10;99.90;;;;;;6239083;23;20508;-78
2023/02/01 03:19:20;;;;;;;7.50;3.30;;;3.00;99.90;;;;;;6238914;23;20443;-78
2023/02/01 03:21:53;;;;;;;5.03;4.53;;;2.90;99.90;;;;;;6241892;23;20433;-77
2023/02/01 03:24:32;;;;;;;8.20;5.33;;;3.00;99.90;;;;;;6242786;23;20518;-77
2023/02/01 03:27:05;;;;;;;7.20;5.10;;;3.00;99.90;;;;;;6240910;22;20855;-78
2023/02/01 03:29:38;;;;;;;6.10;4.10;;;4.00;99.90;;;;;;6243731;23;20385;-78
2023/02/01 03:32:05;;;;;;;6.47;4.10;;;3.10;99.90;;;;;;6246320;23;20481;-77
2023/02/01 03:34:32;;;;;;;7.10;3.53;;;3.10;99.90;;;;;;6249161;23;20453;-78
2023/02/01 03:37:03;;;;;;;4.50;4.10;;;3.80;99.90;;;;;;6247927;23;20719;-78
2023/02/01 03:39:33;;;;;;;6.93;4.40;;;3.10;99.90;;;;;;6245414;23;20629;-77
2023/02/01 03:42:03;;;;;;;5.37;4.83;;;3.20;99.90;;;;;;6243420;23;20420;-77
2023/02/01 03:44:35;;;;;;;5.47;4.50;;;3.10;99.90;;;;;;6241945;23;20758;-77
2023/02/01 03:47:08;;;;;;;8.83;4.00;;;3.00;99.90;;;;;;6240732;23;20401;-77
2023/02/01 03:49:38;;;;;;;6.83;5.07;;;3.10;99.90;;;;;;6241546;23;20452;-77
2023/02/01 03:52:09;;;;;;;5.17;3.67;;;3.10;99.90;;;;;;6241387;23;20434;-78
2023/02/01 03:54:38;;;;;;;5.23;4.43;;;3.20;99.90;;;;;;6241656;23;20457;-78
2023/02/01 03:57:11;;;;;;;6.03;3.70;;;3.00;99.90;;;;;;6247318;23;20395;-77
2023/02/01 03:59:40;;;;;;;5.23;4.47;;;3.20;99.90;;;;;;6250214;23;20390;-77
2023/02/01 04:02:07;;;;;;;5.47;3.83;;;3.10;99.90;;;;;;6247533;23;20411;-77
2023/02/01 04:04:35;;;;;;;5.00;4.50;;;3.10;99.90;;;;;;6248376;23;20454;-77
2023/02/01 04:07:02;;;;;;;4.73;4.10;;;3.60;99.90;;;;;;6248241;23;20417;-77
2023/02/01 04:09:30;;;;;;;4.80;4.30;;;3.20;99.90;;;;;;6243306;23;20400;-77
2023/02/01 04:11:57;;;;;;;6.23;4.03;;;3.20;99.90;;;;;;6240780;23;20416;-77
2023/02/01 04:14:24;;;;;;;6.23;3.80;;;3.30;99.90;;;;;;6240776;23;20954;-78
2023/02/01 04:16:51;;;;;;;6.50;4.00;;;3.30;99.90;;;;;;6240847;23;20394;-78
2023/02/01 04:19:18;;;;;;;5.07;4.27;;;3.20;99.90;;;;;;6241084;23;20500;-78
2023/02/01 04:21:45;;;;;;;6.43;4.90;;;3.30;99.90;;;;;;6241184;23;20733;-78
2023/02/01 04:24:12;;;;;;;7.33;4.30;;;3.40;99.90;;;;;;6242617;23;20442;-85
2023/02/01 04:26:40;;;;;;;7.10;4.67;;;3.10;99.90;;;;;;6244085;23;20406;-83
2023/02/01 04:29:07;;;;;;;5.63;3.87;;;3.10;99.90;;;;;;6241087;23;20578;-77
2023/02/01 04:31:35;;;;;;;5.00;4.50;;;3.00;99.90;;;;;;6240445;23;20484;-78
2023/02/01 04:34:02;;;;;;;7.53;5.67;;;3.50;99.90;;;;;;6239276;23;20418;-77
2023/02/01 04:36:28;;;;;;;5.30;4.23;;;3.10;99.90;;;;;;6240132;23;21023;-77
2023/02/01 04:38:55;;;;;;;8.80;5.87;;;3.90;99.90;;;;;;6239817;23;20418;-77
2023/02/01 04:41:22;;;;;;;5.60;4.83;;;3.30;99.90;;;;;;6240704;23;20417;-78
2023/02/01 04:43:52;;;;;;;5.30;3.33;;;3.40;99.90;;;;;;6240242;23;20445;-78
2023/02/01 04:46:19;;;;;;;5.30;4.23;;;3.10;99.90;;;;;;6240237;23;20414;-78
2023/02/01 04:48:45;;;;;;;3.90;3.43;;;3.10;99.90;;;;;;6239953;23;20423;-79
2023/02/01 04:51:12;;;;;;;8.13;5.13;;;3.20;99.90;;;;;;6241292;23;20421;-80
2023/02/01 04:53:39;;;;;;;6.03;4.53;;;3.30;99.90;;;;;;6241761;23;20432;-79
2023/02/01 04:56:07;;;;;;;6.33;3.30;;;3.10;99.90;;;;;;6242082;23;20785;-78
2023/02/01 04:58:34;;;;;;;6.70;5.27;;;3.30;99.90;;;;;;6241085;23;20429;-81
2023/02/01 05:01:05;;;;;;;6.87;4.50;;;3.30;99.90;;;;;;6240317;23;20413;-77
2023/02/01 05:03:31;;;;;;;4.03;3.67;;;3.20;99.90;;;;;;6239700;23;20946;-77
2023/02/01 05:05:59;;;;;;;10.50;5.43;;;3.20;99.90;;;;;;6240190;23;20414;-80
2023/02/01 05:08:26;;;;;;;7.57;5.97;;;3.20;99.90;;;;;;6241899;23;20410;-78
2023/02/01 05:10:53;;;;;;;5.83;5.07;;;3.50;99.90;;;;;;6240427;23;20478;-78
2023/02/01 05:16:06;;;;;;;6.70;3.90;;;3.10;99.90;;;;;;6240332;23;20388;-79
2023/02/01 05:18:33;;;;;;;7.23;5.70;;;3.10;99.90;;;;;;6239402;23;20497;-78
2023/02/01 05:21:01;;;;;;;6.10;5.30;;;3.10;99.90;;;;;;6240155;23;20429;-78
2023/02/01 05:23:28;;;;;;;6.67;5.00;;;3.20;99.90;;;;;;6239922;23;20533;-77
2023/02/01 05:25:59;;;;;;;8.90;6.33;;;3.10;99.90;;;;;;6240367;23;20422;-78
2023/02/01 05:28:26;;;;;;;8.20;5.70;;;3.10;99.90;;;;;;6240795;23;20416;-78
2023/02/01 05:30:53;;;;;;;6.20;3.77;;;3.30;99.90;;;;;;6239638;23;20409;-75
2023/02/01 05:33:21;;;;;;;5.73;5.10;;;3.20;99.90;;;;;;6239077;23;21054;-75
2023/02/01 05:35:48;;;;;;;5.70;5.07;;;3.10;99.90;;;;;;6239210;23;20404;-76
2023/02/01 05:38:15;;;;;;;7.03;5.20;;;3.20;99.90;;;;;;6239095;23;20405;-75
2023/02/01 05:40:41;;;;;;;6.57;4.30;;;3.20;99.90;;;;;;6241232;23;20416;-79
2023/02/01 05:43:08;;;;;;;7.10;6.00;;;3.20;99.90;;;;;;6245119;22;20414;-75
2023/02/01 05:45:35;;;;;;;6.20;5.20;;;3.20;99.90;;;;;;6239148;23;20756;-78
2023/02/01 05:48:04;;;;;;;8.87;6.53;;;3.20;99.90;;;;;;6240170;23;20829;-77
2023/02/01 05:50:32;;;;;;;7.87;5.03;;;3.60;99.90;;;;;;6239431;23;20525;-75
2023/02/01 05:52:59;;;;;;;7.93;4.40;;;4.50;99.90;;;;;;6239428;23;20437;-76
2023/02/01 05:55:26;;;;;;;6.97;6.27;;;3.20;99.90;;;;;;6238879;23;20739;-78
2023/02/01 05:57:53;;;;;;;6.30;5.67;;;3.30;99.90;;;;;;6239662;23;20421;-77
2023/02/01 06:00:21;;;;;;;9.80;6.27;;;3.20;99.90;;;;;;6238904;23;20510;-77
2023/02/01 06:02:47;;;;;;;3.73;3.30;;;3.20;99.90;;;;;;6240327;22;20473;-78
2023/02/01 06:05:17;;;;;;;6.50;5.20;;;3.20;99.90;;;;;;6241277;23;20441;-79
2023/02/01 06:07:47;;;;;;;8.43;6.50;;;3.40;99.90;;;;;;6241508;23;20497;-78
2023/02/01 06:10:14;;;;;;;8.87;6.53;;;3.20;99.90;;;;;;6235040;22;20759;-80
2023/02/01 06:12:41;;;;;;;8.17;6.27;;;3.60;99.90;;;;;;6243194;23;20416;-88
2023/02/01 06:15:09;;;;;;;11.50;4.40;;;3.50;99.90;;;;;;6245574;23;20787;-80
2023/02/01 06:17:36;;;;;;;4.47;3.77;;;3.20;99.90;;;;;;6240926;23;20406;-77
2023/02/01 06:20:03;;;;;;;7.90;6.37;;;3.50;99.90;;;;;;6240537;23;20429;-77
2023/02/01 06:22:30;;;;;;;5.60;5.00;;;3.30;99.90;;;;;;6239776;23;20410;-77
2023/02/01 06:24:59;;;;;;;6.27;5.67;;;3.70;99.90;;;;;;6239531;23;20445;-76
2023/02/01 06:27:26;;;;;;;10.00;6.03;;;3.30;99.90;;;;;;6239715;23;20406;-78
2023/02/01 06:29:53;;;;;;;4.60;3.60;;;3.30;99.90;;;;;;6241543;22;20410;-77
2023/02/01 06:32:20;;;;;;;7.10;4.20;;;3.70;99.90;;;;;;6238498;23;20402;-78
2023/02/01 06:34:46;;;;;;;5.40;3.33;;;3.30;99.90;;;;;;6240591;23;20403;-76
2023/02/01 06:37:13;;;;;;;8.30;5.50;;;3.40;99.90;;;;;;6242111;23;20503;-79
2023/02/01 06:39:40;;;;;;;4.07;3.33;;;3.30;99.90;;;;;;6239362;23;20468;-77
2023/02/01 06:42:08;;;;;;;7.93;5.87;;;3.40;99.90;;;;;;6239846;23;20746;-77
2023/02/01 06:44:35;;;;;;;4.47;4.07;;;3.30;99.90;;;;;;6242871;23;20450;-87
2023/02/01 06:47:04;;;;;;;4.03;3.60;;;3.70;99.90;;;;;;6246324;23;20501;-79
2023/02/01 06:49:31;;;;;;;9.53;5.63;;;3.40;99.90;;;;;;6241029;23;20410;-81
2023/02/01 06:51:59;;;;;;;6.17;5.20;;;3.40;99.90;;;;;;6246346;22;21001;-78
2023/02/01 06:54:26;;;;;;;5.23;4.10;;;3.40;99.90;;;;;;6238543;23;20930;-78
2023/02/01 06:56:53;;;;;;;5.50;4.10;;;3.40;99.90;;;;;;6239911;23;21037;-78
2023/02/01 06:59:22;;;;;;;5.30;4.80;;;3.30;99.90;;;;;;6240144;23;20412;-78
2023/02/01 07:01:49;;;;;;;7.57;5.53;;;3.40;99.90;;;;;;6240184;23;20432;-78
2023/02/01 07:04:15;;;;;;;6.27;5.00;;;3.40;99.90;;;;;;6241440;23;20468;-79
2023/02/01 07:06:43;;;;;;;4.40;3.57;;;3.90;99.90;;;;;;6246248;23;20497;-78
2023/02/01 07:09:11;;;;;;;4.70;3.30;;;3.50;99.90;;;;;;6244292;23;20492;-77
2023/02/01 07:11:42;;;;;;;4.97;4.47;;;3.60;99.90;;;;;;6242858;23;20424;-78
2023/02/01 07:14:09;;;;;;;8.20;5.23;;;3.80;99.90;;;;;;6242214;23;20404;-77
2023/02/01 07:16:38;;;;;;;5.87;4.47;;;3.30;99.90;;;;;;6242267;23;20493;-80
2023/02/01 07:19:04;;;;;;;6.23;5.37;;;3.40;99.90;;;;;;6241925;23;20409;-80
2023/02/01 07:21:31;;;;;;;7.43;5.20;;;3.40;99.90;;;;;;6244589;23;20440;-76
2023/02/01 07:23:59;;;;;;;5.17;4.17;;;3.30;99.90;;;;;;6246705;23;20410;-79
2023/02/01 07:26:25;;;;;;;5.67;4.00;;;3.40;99.90;;;;;;6247984;23;20477;-78
2023/02/01 07:28:52;;;;;;;6.90;5.10;;;3.40;99.90;;;;;;6241345;23;20488;-79
2023/02/01 07:31:21;;;;;;;4.67;4.13;;;3.40;99.90;;;;;;6242877;23;20798;-78
2023/02/01 07:33:52;;;;;;;7.73;3.90;;;3.50;99.90;;;;;;6240904;23;20894;-77
2023/02/01 07:36:19;;;;;;;4.57;3.43;;;3.50;99.90;;;;;;6240728;23;20421;-77
2023/02/01 07:38:47;;;;;;;4.30;3.60;;;3.50;99.90;;;;;;6240504;23;20497;-78
2023/02/01 07:41:14;;;;;;;5.37;4.87;;;3.50;99.90;;;;;;6240648;23;20974;-78
2023/02/01 07:43:41;;;;;;;3.37;2.47;;;3.50;99.90;;;;;;6239759;23;20423;-78
2023/02/01 07:46:08;;;;;;;5.37;4.23;;;3.60;99.90;;;;;;6240607;23;20438;-76
2023/02/01 07:48:35;;;;;;;4.20;3.80;;;3.60;99.90;;;;;;6240443;23;20444;-76
2023/02/01 07:51:05;;;;;;;6.20;4.07;;;3.60;99.90;;;;;;6242063;23;20414;-77
2023/02/01 07:53:34;;;;;;;4.07;3.40;;;3.60;99.90;;;;;;6241596;23;20514;-77
2023/02/01 07:56:00;;;;;;;5.30;3.60;;;3.60;99.90;;;;;;6240796;23;21161;-76
2023/02/01 07:58:28;;;;;;;4.50;3.20;;;3.60;99.90;;;;;;6240787;23;20947;-77
2023/02/01 08:03:39;;;;;;;3.07;2.77;;;3.70;99.90;;;;;;6243233;23;20404;-78
2023/02/01 08:06:08;;;;;;;4.57;4.10;;;3.70;99.90;;;;;;6240428;23;20449;-77
2023/02/01 08:08:35;;;;;;;3.53;2.77;;;3.80;99.90;;;;;;6240572;23;20414;-78
2023/02/01 08:11:09;;;;;;;2.97;2.30;;;3.80;99.90;;;;;;6242453;23;20410;-76
2023/02/01 08:16:27;;;;;;;2.67;2.47;;;3.90;99.90;;;;;;6215828;23;21261;-77
2023/02/01 08:18:54;;;;;;;4.10;3.30;;;3.90;99.90;;;;;;6240199;23;20424;-77
2023/02/01 08:21:25;;;;;;;5.10;3.27;;;4.30;99.90;;;;;;6240144;23;20946;-77
2023/02/01 08:23:52;;;;;;;3.47;2.60;;;4.10;99.90;;;;;;6239997;23;20410;-77
2023/02/01 08:26:22;;;;;;;2.87;2.67;;;4.00;99.90;;;;;;6240341;23;20445;-76
2023/02/01 08:28:51;;;;;;;3.30;3.00;;;3.90;99.90;;;;;;6240370;23;20677;-77
2023/02/01 08:31:21;;;;;;;2.77;2.30;;;4.00;99.90;;;;;;6240237;22;20409;-76
2023/02/01 08:33:50;;;;;;;7.50;2.97;;;4.00;99.90;;;;;;6240262;22;20418;-76
2023/02/01 08:36:17;;;;;;;4.90;2.50;;;4.10;99.90;;;;;;6239728;23;20673;-77
2023/02/01 08:38:45;;;;;;;5.50;3.10;;;4.10;99.90;;;;;;6240120;23;20485;-77
2023/02/01 08:41:13;;;;;;;4.80;2.57;;;4.10;99.90;;;;;;6240432;23;20429;-77
2023/02/01 08:43:41;;;;;;;2.57;2.10;;;4.20;99.90;;;;;;6240021;23;20399;-76
2023/02/01 08:46:09;;;;;;;3.70;3.00;;;4.20;99.90;;;;;;6240022;22;20616;-77
2023/02/01 08:48:36;;;;;;;4.27;2.63;;;4.20;99.90;;;;;;6240100;23;20422;-77
2023/02/01 08:51:04;;;;;;;3.93;3.57;;;4.20;99.90;;;;;;6239792;23;20408;-77
2023/02/01 08:53:31;;;;;;;14.53;3.67;;;4.50;99.90;;;;;;6239753;23;20765;-77
2023/02/01 08:56:00;;;;;;;4.00;2.53;;;4.20;99.90;;;;;;6240326;23;20414;-77
2023/02/01 08:58:27;;;;;;;2.90;2.33;;;4.20;99.90;;;;;;6240178;23;20404;-77
2023/02/01 09:00:54;;;;;;;4.23;2.90;;;4.40;99.90;;;;;;6240207;23;20410;-77
2023/02/01 09:03:20;;;;;;;4.53;2.83;;;4.20;99.90;;;;;;6240933;23;20409;-78
2023/02/01 09:05:47;;;;;;;5.50;2.90;;;4.30;99.90;;;;;;6240120;23;20532;-77
2023/02/01 09:08:15;;;;;;;3.80;2.13;;;4.30;99.90;;;;;;6240210;23;20725;-77
2023/02/01 09:10:42;;;;;;;2.73;2.53;;;4.40;99.90;;;;;;6247141;23;20406;-80
2023/02/01 09:13:10;;;;;;;2.63;2.40;;;4.30;99.90;;;;;;6248819;23;20413;-81
2023/02/01 09:15:38;;;;;;;3.13;2.50;;;4.40;99.90;;;;;;6248328;23;20409;-79
2023/02/01 09:18:05;;;;;;;3.73;2.57;;;4.40;99.90;;;;;;6247606;23;20744;-80
2023/02/01 09:20:32;;;;;;;4.27;3.70;;;4.40;99.90;;;;;;6241269;23;20441;-78
2023/02/01 09:22:59;;;;;;;3.23;2.47;;;4.40;99.90;;;;;;6240517;23;20398;-77
2023/02/01 09:25:27;;;;;;;5.53;2.80;;;4.50;99.90;;;;;;6241182;23;20446;-77
2023/02/01 09:27:54;;;;;;;2.80;2.27;;;4.50;99.90;;;;;;6242919;23;20797;-77
2023/02/01 09:30:22;;;;;;;3.60;2.97;;;4.40;99.90;;;;;;6240514;23;20394;-78
2023/02/01 09:32:49;;;;;;;6.67;4.00;;;5.30;99.90;;;;;;6239744;23;20397;-77
2023/02/01 09:35:16;;;;;;;3.53;3.23;;;4.50;99.90;;;;;;6240345;23;20410;-79
2023/02/01 09:37:43;;;;;;;2.57;2.37;;;4.70;99.90;;;;;;6240265;23;20449;-77
2023/02/01 09:40:14;;;;;;;5.23;2.60;;;4.50;99.90;;;;;;6239886;23;20414;-78
2023/02/01 09:43:13;;;;;;;2.60;2.40;;;4.60;99.90;;;;;;6240344;22;20390;-77
2023/02/01 09:45:49;;;;;;;4.73;2.10;;;4.60;99.90;;;;;;6239275;22;20438;-77
2023/02/01 09:48:21;;;;;;;2.90;2.27;;;4.60;99.90;;;;;;6239870;23;20390;-76
2023/02/01 09:50:53;;;;;;;3.20;2.90;;;4.60;99.90;;;;;;6239565;23;20880;-77
2023/02/01 09:53:25;;;;;;;5.37;2.83;;;4.50;99.90;;;;;;6239424;23;20438;-77
2023/02/01 09:55:56;;;;;;;4.20;3.17;;;4.60;99.90;;;;;;6239725;23;20393;-79
2023/02/01 09:58:28;;;;;;;2.87;2.63;;;4.60;99.90;;;;;;6241124;23;20397;-78
2023/02/01 10:00:59;;;;;;;2.53;2.20;;;4.50;99.90;;;;;;6240887;23;20871;-77
2023/02/01 10:03:29;;;;;;;3.67;3.13;;;4.70;99.90;;;;;;6243687;22;20394;-77
2023/02/01 10:06:14;;;;;;;4.50;3.00;;;4.60;99.90;;;;;;6242093;23;20508;-77
2023/02/01 10:09:03;;;;;;;3.10;2.70;;;4.70;99.90;;;;;;6241945;23;20406;-78
2023/02/01 10:11:48;;;;;;;2.80;2.07;;;4.70;99.90;;;;;;6242371;23;20869;-77
2023/02/01 10:14:35;;;;;;;3.50;2.87;;;4.70;99.90;;;;;;6242518;22;20418;-77
2023/02/01 10:17:13;;;;;;;6.93;3.30;;;4.60;99.90;;;;;;6238318;23;20411;-78
2023/02/01 10:19:53;;;;;;;8.83;3.20;;;4.70;99.90;;;;;;6243924;23;20532;-78
2023/02/01 10:22:34;;;;;;;4.30;2.40;;;4.60;99.90;;;;;;6243166;23;20450;-78
2023/02/01 10:25:08;;;;;;;3.20;2.37;;;4.60;99.90;;;;;;6242764;23;20438;-77
2023/02/01 10:27:37;;;;;;;3.80;2.60;;;4.40;99.90;;;;;;6246099;23;20395;-88
2023/02/01 10:30:21;;;;;;;9.33;3.70;;;4.70;99.90;;;;;;6228476;22;20846;-76
2023/02/01 10:32:55;;;;;;;4.77;4.07;;;4.70;99.90;;;;;;6243553;22;20950;-77
2023/02/01 10:35:27;;;;;;;3.27;2.93;;;4.50;99.90;;;;;;6240531;23;20446;-77
2023/02/01 10:37:55;;;;;;;2.60;2.40;;;4.50;99.90;;;;;;6242916;23;20402;-77
2023/02/01 10:40:24;;;;;;;2.63;2.33;;;4.70;99.90;;;;;;6242162;23;20410;-77
2023/02/01 10:42:53;;;;;;;3.70;3.33;;;4.60;99.90;;;;;;6242390;23;20483;-77
2023/02/01 10:45:22;;;;;;;2.70;2.50;;;4.60;99.90;;;;;;6242607;23;20445;-76
2023/02/01 10:47:53;;;;;;;3.40;2.57;;;4.60;99.90;;;;;;6240515;23;20402;-77
2023/02/01 10:50:34;;;;;;;5.77;2.17;;;4.60;99.90;;;;;;6241172;23;20403;-77
2023/02/01 10:53:06;;;;;;;3.17;2.80;;;4.70;99.90;;;;;;6240944;23;20666;-77
2023/02/01 10:55:39;;;;;;;4.00;2.87;;;4.60;99.90;;;;;;6240878;23;20406;-78
2023/02/01 10:58:14;;;;;;;3.83;3.10;;;4.50;99.90;;;;;;6239953;23;20989;-77
2023/02/01 11:00:46;;;;;;;2.20;2.00;;;4.50;99.90;;;;;;6240271;23;20377;-77
2023/02/01 11:03:34;;;;;;;3.80;2.90;;;4.80;99.90;;;;;;6243941;23;20405;-77
2023/02/01 11:06:02;;;;;;;2.77;2.57;;;4.60;99.90;;;;;;6240533;23;20541;-77
2023/02/01 11:08:29;;;;;;;3.60;3.30;;;4.80;99.90;;;;;;6242029;23;20492;-77
2023/02/01 11:11:02;;;;;;;3.73;3.40;;;4.40;99.90;;;;;;6239731;23;20484;-78
2023/02/01 11:13:35;;;;;;;4.53;2.93;;;4.40;99.90;;;;;;6239771;23;20907;-77
2023/02/01 11:16:04;;;;;;;10.83;4.13;;;4.50;99.90;;;;;;6239320;23;20941;-77
2023/02/01 11:18:36;;;;;;;5.20;3.90;;;4.60;99.90;;;;;;6239912;23;20402;-77
2023/02/01 11:21:04;;;;;;;3.30;2.90;;;4.40;99.90;;;;;;6240369;23;20484;-78
2023/02/01 11:23:36;;;;;;;3.60;3.30;;;4.60;99.90;;;;;;6241566;23;20404;-77
2023/02/01 11:26:12;;;;;;;4.77;4.00;;;4.50;99.90;;;;;;6245554;23;20445;-79
2023/02/01 11:28:43;;;;;;;4.50;2.83;;;4.50;99.90;;;;;;6246124;23;20401;-77
2023/02/01 11:31:13;;;;;;;3.87;3.47;;;4.40;99.90;;;;;;6246501;23;20391;-76
2023/02/01 11:33:49;;;;;;;4.80;3.70;;;4.50;99.90;;;;;;6245715;23;20434;-78
2023/02/01 11:36:18;;;;;;;5.03;3.20;;;4.40;99.90;;;;;;6240930;23;20401;-78
2023/02/01 11:38:52;;;;;;;10.60;3.80;;;4.60;99.90;;;;;;6238896;23;20395;-79
2023/02/01 11:41:23;;;;;;;5.43;3.67;;;4.50;99.90;;;;;;6239765;23;20874;-80
2023/02/01 11:43:56;;;;;;;6.47;3.03;;;4.40;99.90;;;;;;6239934;23;20382;-78
2023/02/01 11:46:26;;;;;;;4.53;3.10;;;4.40;99.90;;;;;;6240790;23;20437;-79
2023/02/01 11:48:56;;;;;;;8.10;3.67;;;4.40;99.90;;;;;;6245068;23;20509;-78
2023/02/01 11:51:51;;;;;;;3.93;2.70;;;4.40;99.90;;;;;;6249280;23;20895;-78
2023/02/01 11:54:30;;;;;;;4.20;2.77;;;4.40;99.90;;;;;;6248557;23;20430;-79
2023/02/01 11:57:11;;;;;;;4.43;4.03;;;4.40;99.90;;;;;;6245088;23;20428;-78
2023/02/01 12:00:03;;;;;;;6.33;3.57;;;4.40;99.90;;;;;;6241552;23;20386;-78
2023/02/01 12:03:05;;;;;;;4.97;4.50;;;4.40;99.90;;;;;;6242854;23;20413;-78
2023/02/01 12:05:51;;;;;;;3.80;3.50;;;4.30;99.90;;;;;;6235212;23;20484;-76
2023/02/01 12:08:33;;;;;;;4.10;2.83;;;4.30;99.90;;;;;;6244015;23;20378;-77
2023/02/01 12:11:28;;;;;;;3.73;3.40;;;4.30;99.90;;;;;;6244014;23;20424;-79
2023/02/01 12:14:11;;;;;;;6.43;5.20;;;4.30;99.90;;;;;;6241417;23;20741;-79
2023/02/01 12:16:47;;;;;;;7.70;4.10;;;4.40;99.90;;;;;;6243445;23;20374;-78
2023/02/01 12:19:30;;;;;;;5.27;3.10;;;4.30;99.90;;;;;;6245034;23;20493;-78
2023/02/01 12:22:09;;;;;;;6.37;4.70;;;4.20;99.90;;;;;;6243952;23;20401;-76
2023/02/01 12:25:06;;;;;;;5.33;4.83;;;4.10;99.90;;;;;;6242085;23;20381;-79
2023/02/01 12:28:00;;;;;;;13.63;5.10;;;4.20;99.90;;;;;;6209973;23;20454;-77
2023/02/01 12:30:57;;;;;;;3.30;2.97;;;4.20;99.90;;;;;;6239278;23;20461;-76
2023/02/01 12:33:35;;;;;;;6.50;3.60;;;4.20;99.90;;;;;;6249180;23;20782;-76
2023/02/01 12:36:15;;;;;;;7.10;4.70;;;4.20;99.90;;;;;;6241773;23;20390;-76
2023/02/01 12:38:54;;;;;;;4.60;3.30;;;4.10;99.90;;;;;;6243203;23;20481;-76
2023/02/01 12:41:53;;;;;;;7.90;4.70;;;4.10;99.90;;;;;;6242493;23;20481;-77
2023/02/01 12:44:41;;;;;;;8.53;3.23;;;4.10;99.90;;;;;;6236545;23;20441;-78
2023/02/01 12:47:17;;;;;;;6.57;4.07;;;4.00;99.90;;;;;;6244210;23;20525;-76
2023/02/01 12:49:51;;;;;;;8.50;3.80;;;4.00;99.90;;;;;;6243657;23;20390;-77
2023/02/01 12:52:24;;;;;;;7.20;4.40;;;4.10;99.90;;;;;;6245321;23;20430;-78
2023/02/01 12:55:00;;;;;;;8.70;3.47;;;4.10;99.90;;;;;;6244025;23;20387;-76
2023/02/01 12:57:31;;;;;;;4.00;3.50;;;4.10;99.90;;;;;;6239823;23;20402;-77
2023/02/01 13:00:14;;;;;;;6.20;3.33;;;4.10;99.90;;;;;;6241222;23;20389;-77
2023/02/01 13:02:46;;;;;;;4.83;4.00;;;4.20;99.90;;;;;;6243725;23;20404;-78
2023/02/01 13:05:19;;;;;;;3.50;2.87;;;4.50;99.90;;;;;;6243543;23;20393;-78
2023/02/01 13:07:51;;;;;;;6.43;2.97;;;4.30;99.90;;;;;;6240691;23;20426;-77
2023/02/01 13:10:25;;;;;;;6.53;3.90;;;4.30;99.90;;;;;;6243281;23;20383;-78
2023/02/01 13:12:55;;;;;;;2.73;2.53;;;4.30;99.90;;;;;;6243389;23;20876;-81
2023/02/01 13:15:27;;;;;;;3.63;3.30;;;4.30;99.90;;;;;;6242842;23;20722;-78
2023/02/01 13:18:00;;;;;;;3.77;3.03;;;4.40;99.90;;;;;;6246604;23;20421;-79
2023/02/01 13:20:32;;;;;;;3.43;3.00;;;4.40;99.90;;;;;;6245676;23;20406;-78
2023/02/01 13:23:04;;;;;;;4.57;2.53;;;4.40;99.90;;;;;;6245216;23;20418;-79
2023/02/01 13:25:40;;;;;;;6.60;4.57;;;4.30;99.90;;;;;;6242787;23;20482;-81
2023/02/01 13:28:13;;;;;;;4.77;4.13;;;4.20;99.90;;;;;;6246469;23;20414;-79
2023/02/01 13:30:56;;;;;;;4.30;3.23;;;4.30;99.90;;;;;;6244004;23;20418;-79
2023/02/01 13:33:40;;;;;;;4.80;3.00;;;4.30;99.90;;;;;;6244794;23;20448;-78
2023/02/01 13:36:23;;;;;;;4.57;3.77;;;4.20;99.90;;;;;;6251865;23;20416;-82
2023/02/01 13:45:50;;;;;;;4.30;3.50;;;4.30;99.90;;;;;;6118303;23;20429;-79
2023/02/01 13:48:26;;;;;;;3.93;3.20;;;4.20;99.90;;;;;;6152967;23;20416;-82
2023/02/01 13:53:45;;;;;;;4.53;3.03;;;4.40;99.90;;;;;;6244559;22;20737;-79
2023/02/01 13:56:17;;;;;;;3.47;3.00;;;4.40;99.90;;;;;;6244119;23;20410;-82